Accueil
METAR-TAF:

METAR-TAF

Aéroports :

Paderborn-Lippstadt, Allemagne

latitude: 51-37N, longitude: 008-37E, altitude: 213 m

Observation

Le bulletin a été fait il y a 34 minutes, à 17:20 UTC
Vent 7 kt de sud-est
Température 6°C
Humidité 87%
Pression 1020 hPa
Visibilité 10 km ou plus
Quelques nuages à une hauteur de 4400 ft

METAR: EDLP 261720Z 13007KT 9999 FEW044 06/04 Q1020

Heure: 18:54 (17:54 UTC)

Prévision

Le bulletin a été fait il y a 54 minutes, à 17:00 UTC
Prévision valable du 26 à 18 UTC au 27 à 18 UTC
Vent 4 kt de sud-est
Visibilité 10 km ou plus
Nuages fragmentés à une hauteur de 3500 ft
Probabilité 30% :
Temporairement
du 27 à 05 UTC au 27 à 13 UTC
Nuages fragmentés à une hauteur de 1200 ft

TAF: EDLP 261700Z 2618/2718 14004KT 9999 BKN035 PROB30 TEMPO 2705/2713 BKN012

Observations et prévisions météorologiques de plus de 4000 aéroports (messages METAR et TAF).

Les stations disponibles sont représentées par des disques jaunes et rouges sur la carte.

Passer la souris dessus pour voir le nom de la station.

Cliquer dessus pour voir les observations et prévisions météorologiques.

Pour changer de carte: cliquez sur les boutons verts avec une croix noire pour zoomer, sur le bouton vert avec un tiret pour effectuer un zoom arrière, ou sur les flèches vertes pour les cartes adjacentes.


METAR-TAF: